createdAt,value
2022-09-25T00:01:14.299Z,0.77
2022-09-25T00:03:41.652Z,0.85
2022-09-25T00:06:23.589Z,1.00
2022-09-25T00:08:52.089Z,0.73
2022-09-25T00:11:22.588Z,0.80
2022-09-25T00:13:50.360Z,0.98
2022-09-25T00:16:21.486Z,0.80
2022-09-25T00:19:07.142Z,1.00
2022-09-25T00:21:35.429Z,0.90
2022-09-25T00:24:05.617Z,1.00
2022-09-25T00:26:36.372Z,0.90
2022-09-25T00:29:04.644Z,1.00
2022-09-25T00:31:32.469Z,0.70
2022-09-25T00:34:02.936Z,0.88
2022-09-25T00:36:31.334Z,0.95
2022-09-25T00:38:59.351Z,0.80
2022-09-25T00:41:31.916Z,0.88
2022-09-25T00:44:01.308Z,0.82
2022-09-25T00:46:34.129Z,0.95
2022-09-25T00:49:24.450Z,1.10
2022-09-25T00:51:55.215Z,0.90
2022-09-25T00:54:49.199Z,0.80
2022-09-25T00:57:23.257Z,0.80
2022-09-25T00:59:55.763Z,0.88
2022-09-25T01:02:31.347Z,0.80
2022-09-25T01:05:04.247Z,1.00
2022-09-25T01:07:34.663Z,0.93
2022-09-25T01:10:02.828Z,1.00
2022-09-25T01:12:30.205Z,0.90
2022-09-25T01:14:57.455Z,0.90
2022-09-25T01:17:51.564Z,0.80
2022-09-25T01:21:05.137Z,0.80
2022-09-25T01:23:35.157Z,1.10
2022-09-25T01:26:15.898Z,0.85
2022-09-25T01:29:01.825Z,0.80
2022-09-25T01:31:50.771Z,0.70
2022-09-25T01:34:45.497Z,0.80
2022-09-25T01:37:35.805Z,0.98
2022-09-25T01:40:24.141Z,1.15
2022-09-25T01:43:05.543Z,0.85
2022-09-25T01:45:48.814Z,0.77
2022-09-25T01:48:20.511Z,1.00
2022-09-25T01:51:05.544Z,0.90
2022-09-25T01:53:50.998Z,0.93
2022-09-25T01:56:26.305Z,0.90
2022-09-25T01:58:59.579Z,0.98
2022-09-25T02:01:32.694Z,0.73
2022-09-25T02:04:05.675Z,0.93
2022-09-25T02:06:36.648Z,0.70
2022-09-25T02:09:19.188Z,0.80
2022-09-25T02:11:51.698Z,0.90
2022-09-25T02:14:32.344Z,0.90
2022-09-25T02:17:03.115Z,1.00
2022-09-25T02:19:49.383Z,0.80
2022-09-25T02:22:22.354Z,0.80
2022-09-25T02:25:11.578Z,1.00
2022-09-25T02:27:38.800Z,0.90
2022-09-25T02:30:06.555Z,0.93
2022-09-25T02:32:34.420Z,0.80
2022-09-25T02:35:01.960Z,0.90
2022-09-25T02:37:29.904Z,0.88
2022-09-25T02:40:00.528Z,0.98
2022-09-25T02:42:57.730Z,1.02
2022-09-25T02:45:33.610Z,1.00
2022-09-25T02:48:09.876Z,0.90
2022-09-25T02:50:51.498Z,0.70
2022-09-25T02:53:37.536Z,0.80
2022-09-25T02:56:29.928Z,0.82
2022-09-25T02:59:05.318Z,0.88
2022-09-25T03:01:35.281Z,0.90
2022-09-25T03:04:06.042Z,0.70
2022-09-25T03:06:33.570Z,0.88
2022-09-25T03:09:02.161Z,0.90
2022-09-25T03:11:29.606Z,0.77
2022-09-25T03:14:06.101Z,0.68
2022-09-25T03:16:42.877Z,0.80
2022-09-25T03:19:10.170Z,0.80
2022-09-25T03:21:37.538Z,0.80
2022-09-25T03:24:05.375Z,0.73
2022-09-25T03:26:33.749Z,0.77
2022-09-25T03:29:02.285Z,0.85
2022-09-25T03:31:30.393Z,0.70
2022-09-25T03:33:58.568Z,1.00
2022-09-25T03:36:30.221Z,0.85
2022-09-25T03:38:59.424Z,0.63
2022-09-25T03:41:29.477Z,0.75
2022-09-25T03:43:57.549Z,0.82
2022-09-25T03:46:30.698Z,0.70
2022-09-25T03:48:59.296Z,1.10
2022-09-25T03:51:28.850Z,0.80
2022-09-25T03:53:56.387Z,0.70
2022-09-25T03:56:25.925Z,0.80
2022-09-25T03:58:54.472Z,0.90
2022-09-25T04:01:22.918Z,0.68
2022-09-25T04:03:51.051Z,0.55
2022-09-25T04:06:21.640Z,0.90
2022-09-25T04:08:50.061Z,1.00
2022-09-25T04:11:19.397Z,1.05
2022-09-25T04:13:47.728Z,0.70
2022-09-25T04:16:17.292Z,0.80
2022-09-25T04:18:44.900Z,0.85
2022-09-25T04:21:14.117Z,0.80
2022-09-25T04:23:41.551Z,0.70
2022-09-25T04:26:09.755Z,0.70
2022-09-25T04:28:37.435Z,0.90
2022-09-25T04:31:05.203Z,0.75
2022-09-25T04:33:48.390Z,1.00
2022-09-25T04:36:21.708Z,0.73
2022-09-25T04:38:49.445Z,0.90
2022-09-25T04:41:19.714Z,0.60
2022-09-25T04:43:47.347Z,0.70
2022-09-25T04:46:20.902Z,0.90
2022-09-25T04:48:49.709Z,0.77
2022-09-25T04:51:16.935Z,0.93
2022-09-25T04:53:44.292Z,0.70
2022-09-25T04:56:16.361Z,0.65
2022-09-25T04:58:49.284Z,0.70
2022-09-25T05:01:18.433Z,0.60
2022-09-25T05:03:50.094Z,0.60
2022-09-25T05:06:17.794Z,0.70
2022-09-25T05:08:47.392Z,0.80
2022-09-25T05:11:14.668Z,0.60
2022-09-25T05:13:43.894Z,0.95
2022-09-25T05:16:11.166Z,0.90
2022-09-25T05:18:39.079Z,0.60
2022-09-25T05:21:06.423Z,0.80
2022-09-25T05:23:33.769Z,0.90
2022-09-25T05:26:02.583Z,0.80
2022-09-25T05:28:32.762Z,0.80
2022-09-25T05:31:04.454Z,0.70
2022-09-25T05:33:35.567Z,0.60
2022-09-25T05:36:05.117Z,0.73
2022-09-25T05:38:37.546Z,0.80
2022-09-25T05:41:09.820Z,0.63
2022-09-25T05:43:46.800Z,0.73
2022-09-25T05:46:15.286Z,0.80
2022-09-25T05:48:42.842Z,0.60
2022-09-25T05:51:11.182Z,0.88
2022-09-25T05:53:38.600Z,0.77
2022-09-25T05:56:06.941Z,0.77
2022-09-25T05:58:35.203Z,0.90
2022-09-25T06:01:04.870Z,0.80
2022-09-25T06:03:32.218Z,0.73
2022-09-25T06:06:00.568Z,0.88
2022-09-25T06:08:31.129Z,0.70
2022-09-25T06:11:00.726Z,0.82
2022-09-25T06:13:28.825Z,0.57
2022-09-25T06:15:57.170Z,1.00
2022-09-25T06:18:25.468Z,0.60
2022-09-25T06:20:58.939Z,0.82
2022-09-25T06:23:26.202Z,0.70
2022-09-25T06:25:53.502Z,0.75
2022-09-25T06:28:20.790Z,0.80
2022-09-25T06:30:48.100Z,0.80
2022-09-25T06:33:15.508Z,1.08
2022-09-25T06:35:47.723Z,0.70
2022-09-25T06:38:17.325Z,0.82
2022-09-25T06:40:45.441Z,0.90
2022-09-25T06:43:16.864Z,0.80
2022-09-25T06:45:44.448Z,0.70
2022-09-25T06:48:18.608Z,0.70
2022-09-25T06:50:55.212Z,0.70
2022-09-25T06:53:24.590Z,0.70
2022-09-25T06:55:54.130Z,0.98
2022-09-25T06:58:23.624Z,0.80
2022-09-25T07:00:53.285Z,1.02
2022-09-25T07:03:39.359Z,0.80
2022-09-25T07:06:08.757Z,0.93
2022-09-25T07:08:36.133Z,1.20
2022-09-25T07:11:03.935Z,1.00
2022-09-25T07:13:33.996Z,1.00
2022-09-25T07:16:22.984Z,1.17
2022-09-25T07:18:52.808Z,1.05
2022-09-25T07:21:22.737Z,1.20
2022-09-25T07:23:51.382Z,1.30
2022-09-25T07:26:30.187Z,1.08
2022-09-25T07:29:03.469Z,1.50
2022-09-25T07:31:33.241Z,1.35
2022-09-25T07:34:09.005Z,1.30
2022-09-25T07:36:41.154Z,1.67
2022-09-25T07:39:08.925Z,1.85
2022-09-25T07:41:37.596Z,1.60
2022-09-25T07:44:27.945Z,1.80
2022-09-25T07:46:52.158Z,1.90
2022-09-25T07:49:19.422Z,1.70
2022-09-25T07:51:46.673Z,2.10
2022-09-25T07:54:13.978Z,2.30
2022-09-25T07:56:41.262Z,2.40
2022-09-25T07:59:08.559Z,2.60
2022-09-25T08:01:39.653Z,2.70
2022-09-25T08:04:10.150Z,2.45
2022-09-25T08:06:38.542Z,2.78
2022-09-25T08:09:10.309Z,2.90
2022-09-25T08:11:38.640Z,3.10
2022-09-25T08:14:06.129Z,3.00
2022-09-25T08:16:33.410Z,3.25
2022-09-25T08:19:00.674Z,3.50
2022-09-25T08:21:27.961Z,3.60
2022-09-25T08:23:56.696Z,3.80
2022-09-25T08:26:24.407Z,4.00
2022-09-25T08:28:52.095Z,4.30
2022-09-25T08:31:19.536Z,4.47
2022-09-25T08:33:48.287Z,4.20
2022-09-25T08:36:16.616Z,4.82
2022-09-25T08:38:44.130Z,4.32
2022-09-25T08:41:16.339Z,4.72
2022-09-25T08:44:14.438Z,5.03
2022-09-25T08:47:05.177Z,5.85
2022-09-25T08:49:41.563Z,6.22
2022-09-25T08:52:15.542Z,6.40
2022-09-25T08:54:45.091Z,6.70
2022-09-25T08:57:21.278Z,6.75
2022-09-25T08:59:59.742Z,7.05
2022-09-25T09:02:43.853Z,6.45
2022-09-25T09:05:26.572Z,7.60
2022-09-25T09:08:05.828Z,7.35
2022-09-25T09:11:34.646Z,7.35
2022-09-25T09:14:22.601Z,7.47
2022-09-25T09:17:18.450Z,7.78
2022-09-25T09:20:02.462Z,9.35
2022-09-25T09:22:37.309Z,10.07
2022-09-25T09:25:16.859Z,9.75
2022-09-25T09:28:01.455Z,8.63
2022-09-25T09:30:43.191Z,9.32
2022-09-25T09:33:25.529Z,9.55
2022-09-25T09:36:23.655Z,8.55
2022-09-25T09:39:12.825Z,8.60
2022-09-25T09:42:16.038Z,8.43
2022-09-25T09:45:00.361Z,7.50
2022-09-25T09:47:45.324Z,7.47
2022-09-25T09:52:48.229Z,7.15
2022-09-25T09:55:30.953Z,7.45
2022-09-25T09:58:08.620Z,8.20
2022-09-25T10:00:36.915Z,9.25
2022-09-25T10:03:24.615Z,8.02
2022-09-25T10:06:02.742Z,7.90
2022-09-25T10:08:30.602Z,7.85
2022-09-25T10:10:59.241Z,8.00
2022-09-25T10:13:37.191Z,8.32
2022-09-25T10:16:11.454Z,8.73
2022-09-25T10:18:46.505Z,8.43
2022-09-25T10:21:42.281Z,8.70
2022-09-25T10:24:09.630Z,9.35
2022-09-25T10:26:39.352Z,8.30
2022-09-25T10:29:27.135Z,8.63
2022-09-25T10:32:03.998Z,9.23
2022-09-25T10:34:33.087Z,8.82
2022-09-25T10:37:20.746Z,8.40
2022-09-25T10:40:06.453Z,8.65
2022-09-25T10:42:44.855Z,8.38
2022-09-25T10:45:27.663Z,8.15
2022-09-25T10:48:13.755Z,8.25
2022-09-25T10:50:42.259Z,7.78
2022-09-25T10:53:32.231Z,7.63
2022-09-25T10:56:12.710Z,7.28
2022-09-25T10:58:47.845Z,7.10
2022-09-25T11:01:16.898Z,7.80
2022-09-25T11:03:55.255Z,6.57
2022-09-25T11:06:33.185Z,6.70
2022-09-25T11:09:16.424Z,7.30
2022-09-25T11:11:47.053Z,7.28
2022-09-25T11:14:35.389Z,7.47
2022-09-25T11:17:10.110Z,7.70
2022-09-25T11:19:39.018Z,7.85
2022-09-25T11:22:26.009Z,6.63
2022-09-25T11:25:18.128Z,7.57
2022-09-25T11:28:02.800Z,7.50
2022-09-25T11:30:40.677Z,7.55
2022-09-25T11:33:21.405Z,7.47
2022-09-25T11:36:05.459Z,7.43
2022-09-25T11:39:07.641Z,7.88
2022-09-25T11:41:45.341Z,7.05
2022-09-25T11:44:57.942Z,7.28
2022-09-25T11:47:37.612Z,7.40
2022-09-25T11:50:09.243Z,7.32
2022-09-25T11:52:47.251Z,7.50
2022-09-25T11:55:34.833Z,7.57
2022-09-25T11:58:23.390Z,7.38
2022-09-25T12:01:06.043Z,7.75
2022-09-25T12:03:51.870Z,7.63
2022-09-25T12:06:56.772Z,7.50
2022-09-25T12:10:04.212Z,8.10
2022-09-25T12:12:41.614Z,8.05
2022-09-25T12:15:31.637Z,7.68
2022-09-25T12:18:24.454Z,7.00
2022-09-25T12:20:55.916Z,7.03
2022-09-25T12:23:49.470Z,7.38
2022-09-25T12:26:45.821Z,6.88
2022-09-25T12:29:34.725Z,7.90
2022-09-25T12:32:40.062Z,7.63
2022-09-25T12:35:16.480Z,7.32
2022-09-25T12:38:00.620Z,7.05
2022-09-25T12:40:55.432Z,7.72
2022-09-25T12:43:43.124Z,7.57
2022-09-25T12:46:26.438Z,7.55
2022-09-25T12:49:11.909Z,6.95
2022-09-25T12:51:45.109Z,6.60
2022-09-25T12:54:23.217Z,7.55
2022-09-25T12:57:16.757Z,6.88
2022-09-25T12:59:55.927Z,7.45
2022-09-25T13:02:39.984Z,6.88
2022-09-25T13:05:35.065Z,6.63
2022-09-25T13:08:14.800Z,6.55
2022-09-25T13:10:57.208Z,6.40
2022-09-25T13:13:31.113Z,6.03
2022-09-25T13:16:00.579Z,5.82
2022-09-25T13:18:30.869Z,6.30
2022-09-25T13:21:31.577Z,5.43
2022-09-25T13:24:00.230Z,6.00
2022-09-25T13:26:28.021Z,5.57
2022-09-25T13:29:04.394Z,5.82
2022-09-25T13:31:34.361Z,5.78
2022-09-25T13:34:01.770Z,5.28
2022-09-25T13:36:56.664Z,5.55
2022-09-25T13:39:51.178Z,5.05
2022-09-25T13:42:27.447Z,5.55
2022-09-25T13:45:27.172Z,5.22
2022-09-25T13:48:15.714Z,5.32
2022-09-25T13:50:47.656Z,4.88
2022-09-25T13:53:26.737Z,4.60
2022-09-25T13:55:57.306Z,4.45
2022-09-25T13:58:24.575Z,5.18
2022-09-25T14:00:58.913Z,4.40
2022-09-25T14:03:41.675Z,4.57
2022-09-25T14:06:20.985Z,4.30
2022-09-25T14:08:49.678Z,4.28
2022-09-25T14:11:21.589Z,4.18
2022-09-25T14:13:52.461Z,4.18
2022-09-25T14:16:29.714Z,4.22
2022-09-25T14:18:59.201Z,4.30
2022-09-25T14:21:28.383Z,3.97
2022-09-25T14:23:57.921Z,4.65
2022-09-25T14:26:29.116Z,4.00
2022-09-25T14:28:57.964Z,3.83
2022-09-25T14:31:37.570Z,4.00
2022-09-25T14:34:31.780Z,4.00
2022-09-25T14:37:51.266Z,3.70
2022-09-25T14:40:33.333Z,3.60
2022-09-25T14:43:35.006Z,3.67
2022-09-25T14:46:10.381Z,3.65
2022-09-25T14:48:58.241Z,3.70
2022-09-25T14:51:41.827Z,3.10
2022-09-25T14:54:15.925Z,3.28
2022-09-25T14:56:48.519Z,3.22
2022-09-25T14:59:21.715Z,2.90
2022-09-25T15:01:52.374Z,3.00
2022-09-25T15:04:30.215Z,3.00
2022-09-25T15:07:07.895Z,3.08
2022-09-25T15:09:47.076Z,2.85
2022-09-25T15:12:30.422Z,2.53
2022-09-25T15:15:03.804Z,2.95
2022-09-25T15:17:33.893Z,2.65
2022-09-25T15:20:05.900Z,2.90
2022-09-25T15:22:37.291Z,2.50
2022-09-25T15:25:07.863Z,2.50
2022-09-25T15:27:42.471Z,2.53
2022-09-25T15:30:16.552Z,2.42
2022-09-25T15:32:47.435Z,2.45
2022-09-25T15:35:23.975Z,2.40
2022-09-25T15:38:08.209Z,2.47
2022-09-25T15:40:35.652Z,2.70
2022-09-25T15:43:03.315Z,2.40
2022-09-25T15:45:36.686Z,2.33
2022-09-25T15:48:30.594Z,2.60
2022-09-25T15:51:00.461Z,2.70
2022-09-25T15:53:43.888Z,2.80
2022-09-25T15:56:40.952Z,3.17
2022-09-25T15:59:23.560Z,2.47
2022-09-25T16:02:09.983Z,3.17
2022-09-25T16:04:40.561Z,3.55
2022-09-25T16:07:35.497Z,3.72
2022-09-25T16:10:25.238Z,3.80
2022-09-25T16:12:52.689Z,3.53
2022-09-25T16:15:30.044Z,3.80
2022-09-25T16:18:21.861Z,4.50
2022-09-25T16:21:14.517Z,4.72
2022-09-25T16:23:43.053Z,4.78
2022-09-25T16:26:22.782Z,4.90
2022-09-25T16:29:13.295Z,5.28
2022-09-25T16:31:43.489Z,5.68
2022-09-25T16:34:31.186Z,4.88
2022-09-25T16:37:03.033Z,5.63
2022-09-25T16:39:38.193Z,4.63
2022-09-25T16:42:29.533Z,5.03
2022-09-25T16:45:14.990Z,4.75
2022-09-25T16:47:46.939Z,4.97
2022-09-25T16:50:18.051Z,5.05
2022-09-25T16:52:46.098Z,5.50
2022-09-25T16:55:23.200Z,5.10
2022-09-25T16:57:52.916Z,5.18
2022-09-25T17:00:25.863Z,4.65
2022-09-25T17:02:53.745Z,4.82
2022-09-25T17:05:28.562Z,4.82
2022-09-25T17:07:59.988Z,4.82
2022-09-25T17:10:31.715Z,5.03
2022-09-25T17:13:02.100Z,4.80
2022-09-25T17:15:40.455Z,4.78
2022-09-25T17:18:21.259Z,4.32
2022-09-25T17:20:52.850Z,4.32
2022-09-25T17:23:22.732Z,4.28
2022-09-25T17:25:52.188Z,4.00
2022-09-25T17:28:19.571Z,3.95
2022-09-25T17:30:47.086Z,3.70
2022-09-25T17:33:17.226Z,3.92
2022-09-25T17:35:47.630Z,3.70
2022-09-25T17:38:14.871Z,3.17
2022-09-25T17:40:45.056Z,3.53
2022-09-25T17:43:14.227Z,3.00
2022-09-25T17:45:48.909Z,2.95
2022-09-25T17:48:27.144Z,3.22
2022-09-25T17:51:03.728Z,3.10
2022-09-25T17:53:33.732Z,3.33
2022-09-25T17:56:01.965Z,3.03
2022-09-25T17:58:30.775Z,2.65
2022-09-25T18:00:59.827Z,3.10
2022-09-25T18:03:30.258Z,2.90
2022-09-25T18:05:58.517Z,3.03
2022-09-25T18:08:25.815Z,2.53
2022-09-25T18:10:55.508Z,2.50
2022-09-25T18:13:22.841Z,2.80
2022-09-25T18:16:00.452Z,2.67
2022-09-25T18:18:48.006Z,2.60
2022-09-25T18:21:53.784Z,2.30
2022-09-25T18:24:21.044Z,2.70
2022-09-25T18:26:49.042Z,2.50
2022-09-25T18:29:18.069Z,2.13
2022-09-25T18:31:46.543Z,2.45
2022-09-25T18:34:14.858Z,2.47
2022-09-25T18:36:42.701Z,2.22
2022-09-25T18:39:10.072Z,2.20
2022-09-25T18:41:43.841Z,2.40
2022-09-25T18:44:13.300Z,2.42
2022-09-25T18:46:40.722Z,2.28
2022-09-25T18:49:08.740Z,2.33
2022-09-25T18:51:36.277Z,2.00
2022-09-25T18:54:04.032Z,2.30
2022-09-25T18:56:34.766Z,2.30
2022-09-25T18:59:05.713Z,2.28
2022-09-25T19:01:37.274Z,2.13
2022-09-25T19:04:06.160Z,2.28
2022-09-25T19:06:33.778Z,2.00
2022-09-25T19:09:01.378Z,1.90
2022-09-25T19:11:28.931Z,1.90
2022-09-25T19:13:56.503Z,1.88
2022-09-25T19:16:24.253Z,1.77
2022-09-25T19:18:51.732Z,2.10
2022-09-25T19:21:24.170Z,1.85
2022-09-25T19:23:51.991Z,2.00
2022-09-25T19:26:22.207Z,1.70
2022-09-25T19:28:49.580Z,1.63
2022-09-25T19:31:22.807Z,1.50
2022-09-25T19:33:50.802Z,1.95
2022-09-25T19:36:21.811Z,1.65
2022-09-25T19:38:49.084Z,1.60
2022-09-25T19:41:26.217Z,1.50
2022-09-25T19:43:57.100Z,1.65
2022-09-25T19:46:26.389Z,1.60
2022-09-25T19:48:54.047Z,1.60
2022-09-25T19:51:23.946Z,1.60
2022-09-25T19:53:52.336Z,1.60
2022-09-25T19:56:20.257Z,1.60
2022-09-25T19:58:50.704Z,1.50
2022-09-25T20:01:22.234Z,1.30
2022-09-25T20:03:50.000Z,1.50
2022-09-25T20:06:17.771Z,1.35
2022-09-25T20:08:45.391Z,1.55
2022-09-25T20:11:20.075Z,1.40
2022-09-25T20:13:48.794Z,1.42
2022-09-25T20:16:18.724Z,1.40
2022-09-25T20:18:51.048Z,1.42
2022-09-25T20:21:21.231Z,1.33
2022-09-25T20:23:57.302Z,1.45
2022-09-25T20:26:25.263Z,1.52
2022-09-25T20:28:58.308Z,1.70
2022-09-25T20:31:27.708Z,1.40
2022-09-25T20:33:55.485Z,1.70
2022-09-25T20:36:23.347Z,1.40
2022-09-25T20:38:52.014Z,1.60
2022-09-25T20:41:20.492Z,1.90
2022-09-25T20:43:52.612Z,1.70
2022-09-25T20:46:20.454Z,1.80
2022-09-25T20:48:51.354Z,1.70
2022-09-25T20:51:23.917Z,1.90
2022-09-25T20:53:52.548Z,1.67
2022-09-25T20:56:21.887Z,1.92
2022-09-25T20:58:53.091Z,1.80
2022-09-25T21:01:23.605Z,2.10
2022-09-25T21:03:52.322Z,1.67
2022-09-25T21:06:27.998Z,2.13
2022-09-25T21:08:57.934Z,2.05
2022-09-25T21:11:26.758Z,2.10
2022-09-25T21:13:58.075Z,1.98
2022-09-25T21:16:27.342Z,2.20
2022-09-25T21:19:00.205Z,2.10
2022-09-25T21:21:28.910Z,2.33
2022-09-25T21:23:57.492Z,2.60
2022-09-25T21:26:27.344Z,1.98
2022-09-25T21:28:59.112Z,2.20
2022-09-25T21:31:32.102Z,2.05
2022-09-25T21:34:00.330Z,2.08
2022-09-25T21:36:28.714Z,2.10
2022-09-25T21:38:56.574Z,2.08
2022-09-25T21:41:25.581Z,2.50
2022-09-25T21:44:01.646Z,2.28
2022-09-25T21:46:29.928Z,2.30
2022-09-25T21:49:02.408Z,2.38
2022-09-25T21:51:43.327Z,2.22
2022-09-25T21:54:11.993Z,2.20
2022-09-25T21:56:39.211Z,2.35
2022-09-25T21:59:09.188Z,2.47
2022-09-25T22:01:39.915Z,1.90
2022-09-25T22:04:10.486Z,2.35
2022-09-25T22:06:44.413Z,2.20
2022-09-25T22:09:13.804Z,2.30
2022-09-25T22:11:42.506Z,2.10
2022-09-25T22:14:15.469Z,2.05
2022-09-25T22:16:44.558Z,2.33
2022-09-25T22:19:26.458Z,2.30
2022-09-25T22:21:57.487Z,1.90
2022-09-25T22:24:25.622Z,2.03
2022-09-25T22:26:54.740Z,1.98
2022-09-25T22:29:23.038Z,2.22
2022-09-25T22:31:50.961Z,1.85
2022-09-25T22:34:25.493Z,1.80
2022-09-25T22:39:26.563Z,1.95
2022-09-25T22:41:55.126Z,1.67
2022-09-25T22:44:22.837Z,1.80
2022-09-25T22:46:50.328Z,2.13
2022-09-25T22:49:17.938Z,1.88
2022-09-25T22:51:45.282Z,1.80
2022-09-25T22:54:14.561Z,1.98
2022-09-25T22:56:42.817Z,1.90
2022-09-25T22:59:13.929Z,2.08
2022-09-25T23:01:47.106Z,2.00
2022-09-25T23:04:24.834Z,1.80
2022-09-25T23:06:52.546Z,1.85
2022-09-25T23:09:22.500Z,2.00
2022-09-25T23:11:49.809Z,2.20
2022-09-25T23:14:23.646Z,1.90
2022-09-25T23:16:52.888Z,1.80
2022-09-25T23:19:21.152Z,1.60
2022-09-25T23:21:50.553Z,1.80
2022-09-25T23:24:19.677Z,2.00
2022-09-25T23:26:47.478Z,2.10
2022-09-25T23:29:19.967Z,1.80
2022-09-25T23:31:48.328Z,1.98
2022-09-25T23:34:16.078Z,1.80
2022-09-25T23:36:43.434Z,2.00
2022-09-25T23:39:16.943Z,2.10
2022-09-25T23:41:44.551Z,1.92
2022-09-25T23:44:12.309Z,1.92
2022-09-25T23:46:41.751Z,1.80
2022-09-25T23:49:09.863Z,1.63
2022-09-25T23:51:37.793Z,1.90
2022-09-25T23:54:05.466Z,2.47
2022-09-25T23:56:34.767Z,1.88
2022-09-25T23:59:02.842Z,1.90
